createdAt,value
2022-11-19T00:02:09.034Z,26.95
2022-11-19T00:04:37.562Z,26.25
2022-11-19T00:07:07.529Z,28.88
2022-11-19T00:09:36.038Z,23.95
2022-11-19T00:12:23.271Z,24.95
2022-11-19T00:14:51.729Z,24.25
2022-11-19T00:17:20.606Z,21.45
2022-11-19T00:19:49.007Z,24.90
2022-11-19T00:22:20.279Z,20.70
2022-11-19T00:24:57.060Z,24.65
2022-11-19T00:27:25.764Z,27.08
2022-11-19T00:29:54.426Z,23.23
2022-11-19T00:32:22.883Z,24.45
2022-11-19T00:34:51.517Z,20.58
2022-11-19T00:37:21.601Z,23.90
2022-11-19T00:39:50.066Z,23.08
2022-11-19T00:42:18.504Z,27.17
2022-11-19T00:44:47.538Z,27.63
2022-11-19T00:47:16.135Z,24.67
2022-11-19T00:49:44.591Z,25.83
2022-11-19T00:52:13.224Z,15.73
2022-11-19T00:54:43.316Z,18.50
2022-11-19T00:57:12.093Z,20.27
2022-11-19T00:59:40.590Z,17.77
2022-11-19T01:02:09.228Z,21.45
2022-11-19T01:04:37.770Z,19.25
2022-11-19T01:07:06.280Z,20.98
2022-11-19T01:09:34.973Z,20.58
2022-11-19T01:12:06.663Z,19.60
2022-11-19T01:14:35.118Z,16.98
2022-11-19T01:17:03.513Z,18.60
2022-11-19T01:19:32.070Z,22.83
2022-11-19T01:22:00.593Z,23.52
2022-11-19T01:24:29.280Z,23.48
2022-11-19T01:26:57.752Z,22.95
2022-11-19T01:29:32.304Z,21.88
2022-11-19T01:32:00.702Z,16.83
2022-11-19T01:34:29.158Z,20.45
2022-11-19T01:37:00.699Z,17.55
2022-11-19T01:39:29.296Z,19.73
2022-11-19T01:41:58.153Z,19.70
2022-11-19T01:45:01.488Z,22.92
2022-11-19T01:47:29.981Z,24.30
2022-11-19T01:49:58.401Z,28.40
2022-11-19T01:52:26.980Z,23.80
2022-11-19T01:54:56.857Z,24.17
2022-11-19T01:57:25.297Z,22.73
2022-11-19T01:59:54.187Z,25.88
2022-11-19T02:02:25.441Z,21.92
2022-11-19T02:04:57.290Z,23.35
2022-11-19T02:07:29.587Z,23.50
2022-11-19T02:09:59.083Z,23.00
2022-11-19T02:12:39.361Z,24.88
2022-11-19T02:15:20.739Z,22.33
2022-11-19T02:18:15.496Z,28.08
2022-11-19T02:21:04.316Z,22.33
2022-11-19T02:23:58.763Z,24.02
2022-11-19T02:27:12.336Z,20.60
2022-11-19T02:30:21.812Z,19.17
2022-11-19T02:33:05.475Z,17.38
2022-11-19T02:35:51.738Z,18.95
2022-11-19T02:38:29.297Z,20.35
2022-11-19T02:41:23.052Z,22.85
2022-11-19T02:44:21.096Z,18.65
2022-11-19T02:46:53.131Z,24.08
2022-11-19T02:49:27.291Z,19.55
2022-11-19T02:51:56.160Z,20.70
2022-11-19T02:54:24.819Z,23.02
2022-11-19T02:56:55.214Z,18.52
2022-11-19T02:59:46.707Z,22.40
2022-11-19T03:02:35.230Z,18.88
2022-11-19T03:05:10.240Z,20.45
2022-11-19T03:07:39.332Z,20.00
2022-11-19T03:10:10.830Z,25.75
2022-11-19T03:12:49.724Z,25.08
2022-11-19T03:15:46.569Z,18.35
2022-11-19T03:18:20.708Z,19.60
2022-11-19T03:20:56.373Z,24.50
2022-11-19T03:23:30.714Z,19.48
2022-11-19T03:26:04.896Z,23.20
2022-11-19T03:28:38.734Z,22.40
2022-11-19T03:31:08.762Z,22.85
2022-11-19T03:33:43.337Z,17.67
2022-11-19T03:36:17.511Z,20.67
2022-11-19T03:38:50.559Z,21.90
2022-11-19T03:41:21.475Z,17.83
2022-11-19T03:43:54.634Z,23.92
2022-11-19T03:46:27.728Z,22.38
2022-11-19T03:48:58.343Z,20.17
2022-11-19T03:51:38.165Z,18.60
2022-11-19T03:54:06.956Z,23.95
2022-11-19T03:56:38.876Z,19.23
2022-11-19T03:59:08.656Z,23.92
2022-11-19T04:01:37.636Z,22.00
2022-11-19T04:04:32.446Z,23.90
2022-11-19T04:07:02.333Z,19.55
2022-11-19T04:09:30.875Z,23.00
2022-11-19T04:11:59.346Z,21.05
2022-11-19T04:14:28.030Z,18.95
2022-11-19T04:16:56.943Z,19.83
2022-11-19T04:19:25.349Z,20.98
2022-11-19T04:21:53.880Z,21.60
2022-11-19T04:24:23.757Z,18.20
2022-11-19T04:26:52.345Z,18.25
2022-11-19T04:29:21.663Z,19.30
2022-11-19T04:31:50.360Z,21.35
2022-11-19T04:34:18.876Z,20.08
2022-11-19T04:36:47.336Z,21.77
2022-11-19T04:39:15.844Z,17.45
2022-11-19T04:41:45.698Z,26.58
2022-11-19T04:44:14.149Z,24.38
2022-11-19T04:46:42.989Z,24.83
2022-11-19T04:49:11.459Z,24.08
2022-11-19T04:51:39.928Z,19.33
2022-11-19T04:54:08.858Z,25.55
2022-11-19T04:56:37.303Z,23.63
2022-11-19T04:59:07.343Z,25.15
2022-11-19T05:04:45.559Z,23.92
2022-11-19T05:07:14.040Z,20.73
2022-11-19T05:09:42.482Z,21.33
2022-11-19T05:12:10.996Z,22.75
2022-11-19T05:14:40.808Z,28.30
2022-11-19T05:17:09.627Z,17.67
2022-11-19T05:19:38.070Z,18.63
2022-11-19T05:22:06.539Z,19.40
2022-11-19T05:24:35.042Z,21.50
2022-11-19T05:27:03.744Z,23.25
2022-11-19T05:29:32.572Z,26.70
2022-11-19T05:32:02.416Z,19.52
2022-11-19T05:34:30.910Z,25.20
2022-11-19T05:36:59.360Z,26.52
2022-11-19T05:39:28.211Z,20.17
2022-11-19T05:41:57.102Z,24.00
2022-11-19T05:44:25.585Z,17.45
2022-11-19T05:46:55.649Z,19.73
2022-11-19T05:49:25.642Z,14.50
2022-11-19T05:51:54.105Z,14.93
2022-11-19T05:54:22.841Z,19.45
2022-11-19T05:56:51.609Z,15.70
2022-11-19T05:59:20.595Z,20.17
2022-11-19T06:02:14.253Z,17.77
2022-11-19T06:04:44.084Z,15.75
2022-11-19T06:07:12.733Z,20.08
2022-11-19T06:09:41.602Z,18.27
2022-11-19T06:12:10.219Z,21.67
2022-11-19T06:14:38.622Z,24.75
2022-11-19T06:17:07.114Z,25.45
2022-11-19T06:19:35.561Z,27.92
2022-11-19T06:22:05.774Z,26.17
2022-11-19T06:24:34.284Z,20.08
2022-11-19T06:27:02.801Z,23.80
2022-11-19T06:29:31.268Z,23.70
2022-11-19T06:31:59.997Z,20.10
2022-11-19T06:34:28.473Z,19.02
2022-11-19T06:36:58.622Z,17.73
2022-11-19T06:39:28.464Z,16.80
2022-11-19T06:42:17.675Z,18.77
2022-11-19T06:44:46.096Z,16.65
2022-11-19T06:47:14.547Z,18.25
2022-11-19T06:49:43.001Z,16.83
2022-11-19T06:52:11.478Z,18.88
2022-11-19T06:54:43.336Z,14.73
2022-11-19T06:57:12.167Z,16.58
2022-11-19T06:59:40.953Z,18.52
2022-11-19T07:02:11.173Z,15.60
2022-11-19T07:04:39.727Z,18.52
2022-11-19T07:07:08.260Z,19.77
2022-11-19T07:09:36.844Z,19.88
2022-11-19T07:12:07.601Z,18.58
2022-11-19T07:14:36.020Z,18.85
2022-11-19T07:17:05.141Z,20.02
2022-11-19T07:19:33.817Z,19.60
2022-11-19T07:22:02.780Z,26.08
2022-11-19T07:24:31.236Z,27.08
2022-11-19T07:26:59.699Z,18.08
2022-11-19T07:29:29.752Z,19.88
2022-11-19T07:31:58.196Z,21.67
2022-11-19T07:34:26.943Z,17.67
2022-11-19T07:36:55.574Z,19.80
2022-11-19T07:39:23.999Z,18.92
2022-11-19T07:42:10.052Z,22.77
2022-11-19T07:44:43.428Z,22.90
2022-11-19T07:47:12.025Z,22.85
2022-11-19T07:49:40.478Z,20.25
2022-11-19T07:52:08.941Z,21.27
2022-11-19T07:54:44.683Z,21.30
2022-11-19T07:57:13.206Z,18.30
2022-11-19T07:59:41.630Z,70.60
2022-11-19T08:02:14.047Z,20.38
2022-11-19T08:04:42.852Z,20.90
2022-11-19T08:07:11.340Z,18.88
2022-11-19T08:09:39.865Z,20.88
2022-11-19T08:12:08.874Z,17.38
2022-11-19T08:14:37.374Z,21.38
2022-11-19T08:17:23.345Z,17.33
2022-11-19T08:19:53.353Z,22.30
2022-11-19T08:22:21.772Z,18.77
2022-11-19T08:24:50.201Z,18.88
2022-11-19T08:27:18.896Z,28.60
2022-11-19T08:29:47.316Z,19.83
2022-11-19T08:32:15.765Z,19.85
2022-11-19T08:34:44.370Z,21.55
2022-11-19T08:37:14.775Z,21.35
2022-11-19T08:39:43.228Z,21.80
2022-11-19T08:42:29.350Z,26.15
2022-11-19T08:44:58.803Z,19.52
2022-11-19T08:47:27.204Z,22.67
2022-11-19T08:49:55.675Z,25.88
2022-11-19T08:52:25.531Z,21.13
2022-11-19T08:54:54.009Z,18.17
2022-11-19T08:57:22.518Z,29.55
2022-11-19T08:59:52.215Z,21.85
2022-11-19T09:02:20.666Z,15.70
2022-11-19T09:05:14.781Z,15.27
2022-11-19T09:07:44.734Z,20.17
2022-11-19T09:10:13.217Z,16.25
2022-11-19T09:12:41.824Z,15.20
2022-11-19T09:15:11.049Z,16.52
2022-11-19T09:17:45.325Z,12.48
2022-11-19T09:20:15.509Z,16.75
2022-11-19T09:22:45.343Z,11.45
2022-11-19T09:25:14.089Z,16.45
2022-11-19T09:27:45.584Z,14.82
2022-11-19T09:30:15.284Z,17.50
2022-11-19T09:32:43.813Z,13.48
2022-11-19T09:35:12.618Z,16.88
2022-11-19T09:37:41.055Z,14.68
2022-11-19T09:40:17.433Z,30.42
2022-11-19T09:42:58.757Z,12.27
2022-11-19T09:45:38.939Z,17.42
2022-11-19T09:48:22.232Z,12.85
2022-11-19T09:50:54.671Z,14.65
2022-11-19T09:53:24.550Z,9.55
2022-11-19T09:55:55.505Z,17.50
2022-11-19T09:58:27.529Z,17.40
2022-11-19T10:00:56.331Z,10.00
2022-11-19T10:03:32.786Z,13.38
2022-11-19T10:06:24.091Z,13.75
2022-11-19T10:09:08.626Z,12.45
2022-11-19T10:11:49.530Z,10.00
2022-11-19T10:14:45.794Z,14.88
2022-11-19T10:17:23.645Z,9.18
2022-11-19T10:20:13.708Z,6.25
2022-11-19T10:22:56.943Z,17.05
2022-11-19T10:25:33.129Z,13.80
2022-11-19T10:28:12.345Z,10.38
2022-11-19T10:30:44.218Z,9.23
2022-11-19T10:33:19.398Z,14.15
2022-11-19T10:35:51.343Z,10.95
2022-11-19T10:38:25.056Z,13.85
2022-11-19T10:40:58.874Z,14.40
2022-11-19T10:43:33.829Z,14.48
2022-11-19T10:46:05.690Z,7.22
2022-11-19T10:48:41.419Z,9.02
2022-11-19T10:51:15.653Z,6.20
2022-11-19T10:53:45.700Z,6.78
2022-11-19T10:56:18.626Z,6.68
2022-11-19T10:58:51.796Z,6.18
2022-11-19T11:01:28.384Z,8.75
2022-11-19T11:04:08.503Z,8.65
2022-11-19T11:06:52.736Z,8.25
2022-11-19T11:09:33.343Z,7.82
2022-11-19T11:12:28.688Z,3.53
2022-11-19T11:15:01.207Z,7.88
2022-11-19T11:17:31.802Z,7.80
2022-11-19T11:20:03.008Z,7.60
2022-11-19T11:22:32.040Z,9.35
2022-11-19T11:25:07.016Z,5.95
2022-11-19T11:27:37.067Z,5.55
2022-11-19T11:30:16.156Z,10.88
2022-11-19T11:32:45.374Z,8.48
2022-11-19T11:35:31.033Z,6.85
2022-11-19T11:38:00.992Z,6.18
2022-11-19T11:40:30.609Z,6.00
2022-11-19T11:42:59.969Z,9.02
2022-11-19T11:45:33.215Z,6.38
2022-11-19T11:48:08.477Z,13.00
2022-11-19T11:50:38.366Z,12.63
2022-11-19T11:53:10.821Z,6.53
2022-11-19T11:55:40.024Z,5.47
2022-11-19T11:58:30.824Z,13.55
2022-11-19T12:01:15.960Z,8.30
2022-11-19T12:03:55.461Z,7.22
2022-11-19T12:06:27.118Z,8.43
2022-11-19T12:09:04.539Z,9.38
2022-11-19T12:11:58.201Z,5.00
2022-11-19T12:14:31.225Z,8.63
2022-11-19T12:17:35.803Z,4.40
2022-11-19T12:20:30.189Z,5.57
2022-11-19T12:23:22.667Z,6.05
2022-11-19T12:26:01.008Z,8.15
2022-11-19T12:28:40.622Z,5.75
2022-11-19T12:31:29.669Z,8.00
2022-11-19T12:34:16.136Z,13.15
2022-11-19T12:36:52.370Z,5.88
2022-11-19T12:39:34.826Z,6.25
2022-11-19T12:42:22.749Z,7.18
2022-11-19T12:45:02.518Z,6.05
2022-11-19T12:47:50.661Z,6.63
2022-11-19T12:50:27.965Z,11.00
2022-11-19T12:53:19.212Z,9.30
2022-11-19T12:55:58.305Z,7.65
2022-11-19T12:58:39.650Z,9.27
2022-11-19T13:01:14.286Z,9.98
2022-11-19T13:03:53.779Z,6.10
2022-11-19T13:06:28.423Z,8.63
2022-11-19T13:09:00.828Z,7.90
2022-11-19T13:11:37.598Z,6.97
2022-11-19T13:14:12.904Z,4.85
2022-11-19T13:16:43.218Z,3.78
2022-11-19T13:19:22.809Z,8.80
2022-11-19T13:21:58.693Z,5.80
2022-11-19T13:24:33.744Z,5.00
2022-11-19T13:27:06.097Z,3.53
2022-11-19T13:29:41.076Z,5.20
2022-11-19T13:32:19.189Z,3.63
2022-11-19T13:34:58.468Z,3.83
2022-11-19T13:37:41.267Z,3.10
2022-11-19T13:40:20.965Z,5.68
2022-11-19T13:46:05.762Z,3.63
2022-11-19T13:48:39.749Z,10.55
2022-11-19T13:51:14.720Z,6.90
2022-11-19T13:53:47.563Z,3.70
2022-11-19T13:56:18.570Z,6.28
2022-11-19T13:58:49.022Z,5.38
2022-11-19T14:01:41.457Z,5.57
2022-11-19T14:04:29.052Z,7.53
2022-11-19T14:07:15.466Z,5.18
2022-11-19T14:09:56.861Z,8.30
2022-11-19T14:12:42.395Z,4.57
2022-11-19T14:15:45.649Z,10.52
2022-11-19T14:18:42.955Z,3.95
2022-11-19T14:22:04.104Z,10.35
2022-11-19T14:25:26.623Z,14.82
2022-11-19T14:27:55.665Z,7.05
2022-11-19T14:31:03.588Z,4.70
2022-11-19T14:34:01.485Z,10.95
2022-11-19T14:36:47.663Z,7.90
2022-11-19T14:39:22.099Z,4.10
2022-11-19T14:42:13.490Z,10.40
2022-11-19T14:44:42.762Z,10.00
2022-11-19T14:47:34.287Z,7.72
2022-11-19T14:50:05.557Z,7.68
2022-11-19T14:52:39.135Z,9.02
2022-11-19T14:55:21.657Z,8.80
2022-11-19T14:57:59.628Z,9.00
2022-11-19T15:00:32.188Z,10.80
2022-11-19T15:03:02.353Z,13.20
2022-11-19T15:05:34.482Z,10.98
2022-11-19T15:08:44.231Z,6.22
2022-11-19T15:11:14.489Z,11.15
2022-11-19T15:13:45.824Z,10.15
2022-11-19T15:16:17.368Z,7.35
2022-11-19T15:19:20.705Z,6.90
2022-11-19T15:22:29.559Z,8.88
2022-11-19T15:25:23.092Z,9.65
2022-11-19T15:28:00.592Z,6.95
2022-11-19T15:30:46.309Z,9.60
2022-11-19T15:33:42.058Z,7.88
2022-11-19T15:36:31.430Z,8.35
2022-11-19T15:39:04.595Z,12.25
2022-11-19T15:41:38.269Z,14.10
2022-11-19T15:44:10.212Z,10.70
2022-11-19T15:47:03.997Z,10.50
2022-11-19T15:49:36.307Z,5.18
2022-11-19T15:52:17.935Z,6.57
2022-11-19T15:54:47.426Z,13.20
2022-11-19T15:57:24.239Z,11.43
2022-11-19T15:59:58.069Z,13.27
2022-11-19T16:02:34.796Z,7.13
2022-11-19T16:05:03.457Z,13.07
2022-11-19T16:07:32.858Z,6.85
2022-11-19T16:10:02.142Z,14.85
2022-11-19T16:12:48.191Z,8.70
2022-11-19T16:15:36.912Z,10.80
2022-11-19T16:18:14.506Z,8.75
2022-11-19T16:20:46.535Z,14.55
2022-11-19T16:23:19.548Z,10.57
2022-11-19T16:25:49.877Z,11.38
2022-11-19T16:28:24.347Z,10.63
2022-11-19T16:30:54.841Z,17.15
2022-11-19T16:33:27.232Z,6.25
2022-11-19T16:36:13.385Z,9.23
2022-11-19T16:38:44.771Z,10.23
2022-11-19T16:41:31.309Z,9.35
2022-11-19T16:44:00.654Z,7.43
2022-11-19T16:46:30.916Z,9.85
2022-11-19T16:49:01.699Z,8.02
2022-11-19T16:51:36.810Z,7.75
2022-11-19T16:54:06.627Z,10.80
2022-11-19T16:56:44.129Z,8.27
2022-11-19T16:59:20.628Z,6.53
2022-11-19T17:01:57.665Z,15.60
2022-11-19T17:04:30.085Z,10.13
2022-11-19T17:07:00.816Z,14.38
2022-11-19T17:09:41.664Z,7.15
2022-11-19T17:12:25.260Z,8.43
2022-11-19T17:14:57.208Z,10.35
2022-11-19T17:17:35.586Z,14.25
2022-11-19T17:21:01.119Z,14.75
2022-11-19T17:23:33.023Z,9.90
2022-11-19T17:26:04.454Z,12.15
2022-11-19T17:28:38.324Z,12.38
2022-11-19T17:31:16.524Z,13.18
2022-11-19T17:33:53.368Z,15.55
2022-11-19T17:36:23.323Z,14.15
2022-11-19T17:38:53.462Z,17.63
2022-11-19T17:41:39.512Z,24.42
2022-11-19T17:44:31.077Z,16.15
2022-11-19T17:47:00.270Z,14.75
2022-11-19T17:49:28.947Z,20.42
2022-11-19T17:51:57.413Z,14.05
2022-11-19T17:54:27.641Z,20.98
2022-11-19T17:56:56.237Z,17.50
2022-11-19T17:59:24.948Z,17.83
2022-11-19T18:01:54.252Z,14.77
2022-11-19T18:04:23.020Z,25.45
2022-11-19T18:06:51.575Z,17.67
2022-11-19T18:09:20.688Z,23.35
2022-11-19T18:11:52.687Z,17.60
2022-11-19T18:14:21.206Z,20.48
2022-11-19T18:16:50.168Z,14.55
2022-11-19T18:19:26.419Z,21.48
2022-11-19T18:21:55.376Z,19.55
2022-11-19T18:24:28.172Z,16.75
2022-11-19T18:26:58.160Z,15.98
2022-11-19T18:29:26.624Z,16.75
2022-11-19T18:31:55.515Z,16.92
2022-11-19T18:34:30.909Z,18.65
2022-11-19T18:37:04.113Z,24.27
2022-11-19T18:39:57.369Z,18.85
2022-11-19T18:43:00.861Z,15.93
2022-11-19T18:45:28.306Z,16.02
2022-11-19T18:47:57.361Z,21.70
2022-11-19T18:50:29.914Z,16.17
2022-11-19T18:52:58.868Z,13.55
2022-11-19T18:55:27.518Z,21.58
2022-11-19T18:57:57.403Z,17.77
2022-11-19T19:00:26.410Z,18.00
2022-11-19T19:02:58.084Z,19.90
2022-11-19T19:05:26.568Z,19.38
2022-11-19T19:07:54.971Z,25.75
2022-11-19T19:10:23.471Z,30.88
2022-11-19T19:12:51.996Z,21.23
2022-11-19T19:15:22.000Z,20.50
2022-11-19T19:17:50.513Z,23.05
2022-11-19T19:20:19.048Z,21.10
2022-11-19T19:22:47.553Z,23.63
2022-11-19T19:25:16.153Z,18.83
2022-11-19T19:27:44.755Z,23.17
2022-11-19T19:30:14.180Z,14.77
2022-11-19T19:32:44.613Z,18.10
2022-11-19T19:35:13.136Z,18.95
2022-11-19T19:37:42.609Z,22.40
2022-11-19T19:40:14.860Z,21.60
2022-11-19T19:42:43.401Z,16.40
2022-11-19T19:45:12.636Z,25.00
2022-11-19T19:47:41.109Z,23.30
2022-11-19T19:50:12.242Z,22.35
2022-11-19T19:52:40.738Z,17.00
2022-11-19T19:55:10.148Z,16.90
2022-11-19T19:57:38.614Z,16.95
2022-11-19T20:00:08.746Z,19.00
2022-11-19T20:02:40.568Z,28.20
2022-11-19T20:05:10.839Z,20.88
2022-11-19T20:07:39.618Z,24.02
2022-11-19T20:10:09.129Z,19.08
2022-11-19T20:12:51.365Z,19.30
2022-11-19T20:15:20.591Z,19.23
2022-11-19T20:17:49.176Z,24.17
2022-11-19T20:20:19.693Z,19.83
2022-11-19T20:22:48.119Z,24.15
2022-11-19T20:25:16.781Z,29.25
2022-11-19T20:27:45.572Z,31.70
2022-11-19T20:30:14.781Z,29.90
2022-11-19T20:32:43.426Z,29.00
2022-11-19T20:35:12.152Z,25.27
2022-11-19T20:37:42.158Z,26.35
2022-11-19T20:40:11.815Z,26.50
2022-11-19T20:42:57.455Z,27.98
2022-11-19T20:45:29.307Z,27.98
2022-11-19T20:47:58.110Z,30.35
2022-11-19T20:50:26.863Z,36.42
2022-11-19T20:52:56.982Z,27.58
2022-11-19T20:55:25.410Z,27.63
2022-11-19T20:58:19.542Z,26.98
2022-11-19T21:00:48.063Z,23.90
2022-11-19T21:03:16.719Z,21.98
2022-11-19T21:05:47.544Z,22.67
2022-11-19T21:08:18.809Z,22.30
2022-11-19T21:10:47.494Z,22.48
2022-11-19T21:13:16.126Z,13.77
2022-11-19T21:15:44.736Z,16.00
2022-11-19T21:18:24.288Z,18.05
2022-11-19T21:21:06.953Z,14.48
2022-11-19T21:23:44.961Z,11.65
2022-11-19T21:26:16.504Z,10.45
2022-11-19T21:28:46.260Z,13.32
2022-11-19T21:31:15.391Z,12.32
2022-11-19T21:33:44.368Z,11.98
2022-11-19T21:36:13.804Z,15.27
2022-11-19T21:38:43.758Z,16.17
2022-11-19T21:41:12.208Z,21.85
2022-11-19T21:43:40.983Z,19.98
2022-11-19T21:46:10.241Z,17.65
2022-11-19T21:48:39.318Z,17.20
2022-11-19T21:51:08.759Z,17.88
2022-11-19T21:53:37.649Z,19.88
2022-11-19T21:56:08.956Z,22.42
2022-11-19T21:58:57.316Z,30.17
2022-11-19T22:01:25.849Z,17.55
2022-11-19T22:03:54.466Z,16.13
2022-11-19T22:06:22.910Z,16.48
2022-11-19T22:08:51.705Z,16.65
2022-11-19T22:11:31.051Z,19.83
2022-11-19T22:14:02.276Z,21.10
2022-11-19T22:16:34.264Z,18.77
2022-11-19T22:19:03.289Z,20.98
2022-11-19T22:21:31.695Z,16.35
2022-11-19T22:24:00.413Z,20.75
2022-11-19T22:26:30.588Z,19.42
2022-11-19T22:28:59.197Z,21.58
2022-11-19T22:31:27.827Z,20.63
2022-11-19T22:33:56.618Z,20.00
2022-11-19T22:36:25.427Z,25.65
2022-11-19T22:38:54.036Z,17.33
2022-11-19T22:41:23.472Z,17.35
2022-11-19T22:43:53.339Z,18.02
2022-11-19T22:46:22.890Z,13.15
2022-11-19T22:48:51.335Z,18.60
2022-11-19T22:51:22.320Z,14.93
2022-11-19T22:53:51.822Z,15.68
2022-11-19T22:56:21.957Z,16.70
2022-11-19T22:58:52.866Z,18.10
2022-11-19T23:01:24.943Z,17.65
2022-11-19T23:03:54.519Z,18.98
2022-11-19T23:06:24.117Z,21.50
2022-11-19T23:08:53.013Z,15.35
2022-11-19T23:11:37.746Z,19.23
2022-11-19T23:14:08.856Z,13.70
2022-11-19T23:16:38.228Z,20.73
2022-11-19T23:19:08.051Z,22.80
2022-11-19T23:21:36.891Z,19.55
2022-11-19T23:24:06.349Z,20.17
2022-11-19T23:26:38.436Z,19.65
2022-11-19T23:29:09.274Z,21.35
2022-11-19T23:31:39.764Z,19.92
2022-11-19T23:34:14.125Z,14.18
2022-11-19T23:36:43.104Z,18.88
2022-11-19T23:39:16.096Z,23.02
2022-11-19T23:41:45.187Z,21.02
2022-11-19T23:44:15.367Z,18.05
2022-11-19T23:46:43.824Z,21.95
2022-11-19T23:49:12.416Z,22.88
2022-11-19T23:51:41.359Z,20.35
2022-11-19T23:54:12.607Z,23.15
2022-11-19T23:56:41.338Z,20.45
2022-11-19T23:59:09.837Z,24.30
